createdAt,value
2019-04-14T00:00:49.701Z,2.21
2019-04-14T00:01:48.346Z,2.36
2019-04-14T00:02:49.351Z,2.31
2019-04-14T00:03:48.325Z,2.28
2019-04-14T00:04:48.948Z,2.37
2019-04-14T00:05:49.975Z,2.4
2019-04-14T00:06:48.537Z,2.46
2019-04-14T00:07:49.727Z,2.4
2019-04-14T00:08:48.347Z,2.39
2019-04-14T00:09:48.375Z,2.27
2019-04-14T00:10:48.932Z,2.3
2019-04-14T00:11:48.339Z,2.34
2019-04-14T00:12:49.528Z,2.35
2019-04-14T00:13:48.353Z,2.3
2019-04-14T00:14:49.360Z,2.41
2019-04-14T00:15:55.136Z,2.32
2019-04-14T00:16:49.238Z,2.33
2019-04-14T00:17:48.342Z,2.44
2019-04-14T00:18:49.246Z,2.31
2019-04-14T00:19:48.316Z,2.3
2019-04-14T00:20:49.361Z,2.33
2019-04-14T00:21:48.325Z,2.26
2019-04-14T00:22:49.283Z,2.3
2019-04-14T00:23:48.299Z,2.22
2019-04-14T00:24:49.207Z,2.28
2019-04-14T00:25:48.367Z,2.21
2019-04-14T00:26:48.997Z,2.24
2019-04-14T00:27:48.277Z,2.21
2019-04-14T00:28:49.383Z,2.09
2019-04-14T00:29:48.298Z,2
2019-04-14T00:30:49.321Z,2.11
2019-04-14T00:31:57.092Z,2.16
2019-04-14T00:32:49.033Z,2.1
2019-04-14T00:33:48.275Z,2.05
2019-04-14T00:34:48.729Z,2.17
2019-04-14T00:35:49.808Z,2.26
2019-04-14T00:36:48.586Z,2.32
2019-04-14T00:37:49.158Z,2.2
2019-04-14T00:38:48.281Z,2.18
2019-04-14T00:39:49.175Z,2.07
2019-04-14T00:40:48.292Z,2.08
2019-04-14T00:42:04.723Z,1.95
2019-04-14T00:42:49.707Z,2.07
2019-04-14T00:43:48.690Z,2.14
2019-04-14T00:44:49.752Z,2.07
2019-04-14T00:46:02.575Z,1.93
2019-04-14T00:46:49.758Z,1.92
2019-04-14T00:48:16.448Z,2.08
2019-04-14T00:48:49.932Z,2.11
2019-04-14T00:49:48.939Z,1.99
2019-04-14T00:50:49.739Z,2.02
2019-04-14T00:51:48.977Z,1.99
2019-04-14T00:52:48.294Z,2.19
2019-04-14T00:53:49.372Z,2.06
2019-04-14T00:54:48.252Z,2.11
2019-04-14T00:55:49.181Z,2.13
2019-04-14T00:56:48.246Z,2.2
2019-04-14T00:57:48.896Z,2.16
2019-04-14T00:58:49.789Z,2.11
2019-04-14T00:59:49.010Z,2.1
2019-04-14T01:00:51.871Z,2.15
2019-04-14T01:01:48.600Z,2.2
2019-04-14T01:02:49.519Z,2.14
2019-04-14T01:03:48.412Z,2.14
2019-04-14T01:04:49.281Z,2.17
2019-04-14T01:05:48.334Z,2.15
2019-04-14T01:06:49.169Z,2.13
2019-04-14T01:07:48.251Z,2.16
2019-04-14T01:08:49.173Z,2.03
2019-04-14T01:09:49.062Z,2.11
2019-04-14T01:10:48.248Z,2.12
2019-04-14T01:11:48.980Z,2.18
2019-04-14T01:12:48.221Z,2.24
2019-04-14T01:13:48.805Z,2.24
2019-04-14T01:14:49.716Z,2.25
2019-04-14T01:16:21.935Z,2.02
2019-04-14T01:16:49.657Z,1.99
2019-04-14T01:17:48.842Z,2.09
2019-04-14T01:18:49.570Z,2.19
2019-04-14T01:19:48.618Z,2.23
2019-04-14T01:20:49.451Z,2.28
2019-04-14T01:21:48.338Z,2.13
2019-04-14T01:22:49.048Z,2.12
2019-04-14T01:23:48.205Z,2.15
2019-04-14T01:24:49.165Z,2.15
2019-04-14T01:25:48.200Z,2.27
2019-04-14T01:26:48.661Z,2.04
2019-04-14T01:27:49.628Z,2.07
2019-04-14T01:28:48.604Z,2.2
2019-04-14T01:29:49.707Z,2.28
2019-04-14T01:30:48.196Z,2.36
2019-04-14T01:31:49.531Z,2.27
2019-04-14T01:32:48.242Z,2.29
2019-04-14T01:33:49.262Z,2.23
2019-04-14T01:34:57.077Z,2.13
2019-04-14T01:35:49.138Z,2.24
2019-04-14T01:36:49.632Z,2.15
2019-04-14T01:37:48.845Z,2.16
2019-04-14T01:38:49.408Z,2.24
2019-04-14T01:39:48.334Z,2.22
2019-04-14T01:40:49.063Z,2.22
2019-04-14T01:41:48.208Z,2.27
2019-04-14T01:42:48.785Z,2.32
2019-04-14T01:43:48.167Z,2.22
2019-04-14T01:44:48.281Z,2.19
2019-04-14T01:46:26.442Z,2.3
2019-04-14T01:46:48.197Z,2.32
2019-04-14T01:47:49.230Z,2.33
2019-04-14T01:48:48.156Z,2.22
2019-04-14T01:49:48.823Z,2.23
2019-04-14T01:50:48.170Z,2.26
2019-04-14T01:51:48.664Z,2.21
2019-04-14T01:52:48.184Z,2.18
2019-04-14T01:53:49.045Z,2.11
2019-04-14T01:54:49.651Z,2.12
2019-04-14T01:55:48.499Z,2.21
2019-04-14T01:56:49.380Z,2.15
2019-04-14T01:57:48.492Z,2.12
2019-04-14T01:58:49.314Z,2.22
2019-04-14T01:59:48.471Z,2.28
2019-04-14T02:00:51.427Z,2.22
2019-04-14T02:01:50.121Z,2.18
2019-04-14T02:02:48.913Z,2.28
2019-04-14T02:03:48.395Z,2.29
2019-04-14T02:04:48.751Z,2.27
2019-04-14T02:05:48.162Z,2.18
2019-04-14T02:06:48.624Z,2.24
2019-04-14T02:07:49.559Z,2.26
2019-04-14T02:08:48.202Z,2.19
2019-04-14T02:09:49.158Z,2.22
2019-04-14T02:10:48.184Z,2.18
2019-04-14T02:11:51.130Z,2.24
2019-04-14T02:12:48.139Z,2.3
2019-04-14T02:13:48.783Z,2.27
2019-04-14T02:14:49.641Z,2.17
2019-04-14T02:15:48.791Z,2.12
2019-04-14T02:17:04.282Z,2.2
2019-04-14T02:17:48.324Z,2.18
2019-04-14T02:18:58.743Z,2.17
2019-04-14T02:19:48.286Z,2.19
2019-04-14T02:20:49.335Z,2.18
2019-04-14T02:21:48.127Z,2.07
2019-04-14T02:22:48.646Z,2.14
2019-04-14T02:23:48.131Z,2.14
2019-04-14T02:24:48.366Z,2.04
2019-04-14T02:25:49.683Z,1.98
2019-04-14T02:26:48.199Z,2.05
2019-04-14T02:27:49.586Z,2.12
2019-04-14T02:28:48.441Z,1.98
2019-04-14T02:29:49.635Z,1.91
2019-04-14T03:56:14.787Z,1.47
2019-04-14T03:56:49.419Z,1.49
2019-04-14T03:57:47.990Z,1.48
2019-04-14T03:58:48.855Z,1.47
2019-04-14T03:59:48.008Z,1.47
2019-04-14T04:00:49.655Z,1.47
2019-04-14T04:01:48.105Z,1.49
2019-04-14T04:02:48.982Z,1.46
2019-04-14T04:03:48.017Z,1.61
2019-04-14T04:04:49.105Z,1.57
2019-04-14T04:05:48.027Z,1.52
2019-04-14T04:06:48.813Z,1.54
2019-04-14T04:07:48.019Z,1.42
2019-04-14T04:08:48.718Z,1.44
2019-04-14T04:09:48.016Z,1.48
2019-04-14T04:10:48.942Z,1.55
2019-04-14T04:11:48.004Z,1.45
2019-04-14T04:12:48.846Z,1.39
2019-04-14T04:13:47.974Z,1.36
2019-04-14T04:14:48.762Z,1.38
2019-04-14T04:15:47.995Z,1.49
2019-04-14T04:16:48.570Z,1.57
2019-04-14T04:17:47.962Z,1.39
2019-04-14T04:19:16.444Z,1.33
2019-04-14T04:19:49.335Z,1.41
2019-04-14T04:20:49.862Z,1.41
2019-04-14T04:21:49.007Z,1.42
2019-04-14T04:22:47.992Z,1.28
2019-04-14T04:23:49.129Z,1.4
2019-04-14T04:24:47.950Z,1.31
2019-04-14T04:25:48.931Z,1.33
2019-04-14T04:26:48.006Z,1.37
2019-04-14T04:27:48.656Z,1.4
2019-04-14T04:28:48.005Z,1.42
2019-04-14T04:29:48.645Z,1.43
2019-04-14T04:30:47.960Z,1.44
2019-04-14T04:31:48.454Z,1.39
2019-04-14T04:32:47.936Z,1.37
2019-04-14T04:33:48.054Z,1.36
2019-04-14T04:34:49.207Z,1.43
2019-04-14T04:35:48.079Z,1.44
2019-04-14T04:36:49.004Z,1.51
2019-04-14T04:37:47.992Z,1.47
2019-04-14T04:38:49.008Z,1.38
2019-04-14T04:39:47.971Z,1.39
2019-04-14T04:40:48.821Z,1.42
2019-04-14T04:41:47.965Z,1.38
2019-04-14T04:42:48.639Z,1.44
2019-04-14T04:43:47.946Z,1.34
2019-04-14T04:44:48.984Z,1.39
2019-04-14T04:45:47.974Z,1.45
2019-04-14T04:46:48.573Z,1.39
2019-04-14T04:47:49.389Z,1.41
2019-04-14T04:49:25.755Z,1.33
2019-04-14T04:49:49.191Z,1.19
2019-04-14T04:50:47.936Z,1.3
2019-04-14T04:51:48.900Z,1.32
2019-04-14T04:52:47.934Z,1.4
2019-04-14T04:53:48.623Z,1.47
2019-04-14T04:54:48.025Z,1.32
2019-04-14T04:55:48.265Z,1.34
2019-04-14T04:56:47.984Z,1.3
2019-04-14T04:57:48.304Z,1.24
2019-04-14T04:58:48.193Z,1.22
2019-04-14T04:59:47.882Z,1.27
2019-04-14T05:00:59.470Z,1.4
2019-04-14T05:01:47.991Z,1.3
2019-04-14T05:02:48.887Z,1.35
2019-04-14T05:03:47.893Z,1.42
2019-04-14T05:04:48.566Z,1.36
2019-04-14T05:05:49.354Z,1.22
2019-04-14T05:06:48.584Z,1.34
2019-04-14T05:07:49.224Z,1.33
2019-04-14T05:08:48.256Z,1.31
2019-04-14T05:09:49.241Z,1.34
2019-04-14T05:10:48.300Z,1.29
2019-04-14T05:11:57.816Z,1.34
2019-04-14T05:12:48.166Z,1.36
2019-04-14T05:13:49.140Z,1.3
2019-04-14T05:14:48.197Z,1.24
2019-04-14T05:15:49.159Z,1.33
2019-04-14T05:16:48.761Z,1.29
2019-04-14T05:17:47.904Z,1.36
2019-04-14T05:18:48.864Z,1.33
2019-04-14T05:19:47.894Z,1.37
2019-04-14T05:20:48.997Z,1.43
2019-04-14T05:21:47.693Z,1.39
2019-04-14T05:22:48.901Z,1.41
2019-04-14T05:23:47.847Z,1.44
2019-04-14T05:24:48.833Z,1.47
2019-04-14T05:25:47.918Z,1.49
2019-04-14T05:26:48.720Z,1.48
2019-04-14T05:27:47.901Z,1.5
2019-04-14T05:28:48.622Z,1.5
2019-04-14T05:29:47.867Z,1.51
2019-04-14T05:30:48.535Z,1.53
2019-04-14T05:31:49.262Z,1.47
2019-04-14T05:32:48.131Z,1.53
2019-04-14T05:33:49.141Z,1.53
2019-04-14T05:34:50.400Z,1.54
2019-04-14T05:35:49.108Z,1.53
2019-04-14T05:36:48.044Z,1.49
2019-04-14T05:37:48.894Z,1.44
2019-04-14T05:38:47.983Z,1.44
2019-04-14T05:39:48.697Z,1.51
2019-04-14T05:40:47.884Z,1.47
2019-04-14T05:42:23.692Z,1.47
2019-04-14T05:42:47.842Z,1.53
2019-04-14T05:44:04.701Z,1.52
2019-04-14T05:44:47.864Z,1.45
2019-04-14T05:45:48.241Z,1.51
2019-04-14T05:46:49.205Z,1.55
2019-04-14T05:47:48.155Z,1.59
2019-04-14T05:48:48.979Z,1.64
2019-04-14T05:49:59.271Z,1.62
2019-04-14T05:50:49.198Z,1.54
2019-04-14T05:51:48.363Z,1.61
2019-04-14T05:52:47.830Z,1.6
2019-04-14T05:53:48.221Z,1.5
2019-04-14T05:54:47.808Z,1.53
2019-04-14T05:55:48.343Z,1.64
2019-04-14T05:56:47.883Z,1.54
2019-04-14T05:57:48.306Z,1.59
2019-04-14T05:58:47.824Z,1.62
2019-04-14T05:59:48.627Z,1.63
2019-04-14T06:00:47.915Z,1.62
2019-04-14T06:01:48.971Z,1.67
2019-04-14T06:02:48.743Z,1.71
2019-04-14T06:03:47.872Z,1.73
2019-04-14T06:04:48.377Z,1.59
2019-04-14T06:05:47.770Z,1.62
2019-04-14T06:06:47.864Z,1.57
2019-04-14T06:07:47.873Z,1.62
2019-04-14T06:08:47.818Z,1.66
2019-04-14T06:09:47.874Z,1.62
2019-04-14T06:10:47.829Z,1.69
2019-04-14T06:11:47.806Z,1.7
2019-04-14T06:12:47.861Z,1.69
2019-04-14T06:13:47.847Z,1.62
2019-04-14T06:14:47.864Z,1.68
2019-04-14T06:15:47.810Z,1.73
2019-04-14T06:16:47.877Z,1.7
2019-04-14T06:17:47.839Z,1.68
2019-04-14T06:18:47.813Z,1.69
2019-04-14T06:19:47.818Z,1.7
2019-04-14T06:20:47.799Z,1.72
2019-04-14T06:21:47.835Z,1.71
2019-04-14T06:22:47.999Z,1.74
2019-04-14T06:23:47.847Z,1.73
2019-04-14T06:24:47.772Z,1.78
2019-04-14T06:25:47.859Z,1.78
2019-04-14T06:26:47.767Z,1.78
2019-04-14T06:27:47.855Z,1.76
2019-04-14T06:28:47.815Z,1.7
2019-04-14T06:29:47.813Z,1.83
2019-04-14T06:30:47.999Z,1.88
2019-04-14T06:31:47.846Z,1.9
2019-04-14T06:32:47.776Z,1.77
2019-04-14T06:33:47.759Z,1.87
2019-04-14T06:34:47.859Z,1.94
2019-04-14T06:35:47.775Z,2.02
2019-04-14T06:36:47.776Z,1.9
2019-04-14T06:37:47.797Z,1.86
2019-04-14T06:38:47.773Z,1.9
2019-04-14T06:39:47.834Z,1.95
2019-04-14T06:40:47.806Z,2.01
2019-04-14T06:41:47.809Z,2.13
2019-04-14T06:42:47.783Z,2.01
2019-04-14T06:43:49.563Z,1.98
2019-04-14T06:44:47.779Z,2.04
2019-04-14T06:45:47.745Z,2.09
2019-04-14T06:46:47.813Z,1.96
2019-04-14T06:47:47.782Z,2.03
2019-04-14T06:48:47.803Z,2.17
2019-04-14T06:49:49.790Z,2.2
2019-04-14T06:50:47.776Z,2.27
2019-04-14T06:51:47.806Z,2.3
2019-04-14T06:52:48.058Z,2.4
2019-04-14T06:53:47.844Z,2.41
2019-04-14T06:54:47.720Z,2.4
2019-04-14T06:55:47.738Z,2.19
2019-04-14T06:56:47.780Z,2.28
2019-04-14T06:57:47.781Z,2.28
2019-04-14T06:58:47.808Z,2.33
2019-04-14T06:59:47.726Z,2.32
2019-04-14T07:00:47.734Z,2.38
2019-04-14T07:01:47.865Z,2.37
2019-04-14T07:02:48.297Z,2.33
2019-04-14T07:03:47.745Z,2.32
2019-04-14T07:04:47.758Z,2.27
2019-04-14T07:05:48.116Z,2.35
2019-04-14T07:06:47.732Z,2.35
2019-04-14T07:07:57.801Z,2.4
2019-04-14T07:08:47.853Z,2.39
2019-04-14T07:09:47.712Z,2.39
2019-04-14T07:10:47.919Z,2.35
2019-04-14T07:11:47.727Z,2.36
2019-04-14T07:12:47.715Z,2.39
2019-04-14T07:13:48.423Z,2.32
2019-04-14T07:14:47.757Z,2.27
2019-04-14T07:15:47.733Z,2.39
2019-04-14T07:16:47.767Z,2.37
2019-04-14T07:17:47.760Z,2.39
2019-04-14T07:18:47.720Z,2.44
2019-04-14T07:19:47.855Z,2.49
2019-04-14T07:20:47.677Z,2.48
2019-04-14T07:21:47.796Z,2.34
2019-04-14T07:22:47.728Z,2.36
2019-04-14T07:23:47.762Z,2.46
2019-04-14T07:24:47.747Z,2.49
2019-04-14T07:25:47.703Z,2.46
2019-04-14T07:26:47.844Z,2.54
2019-04-14T07:27:47.808Z,2.5
2019-04-14T07:28:57.300Z,2.51
2019-04-14T07:29:47.749Z,2.75
2019-04-14T07:30:47.674Z,2.79
2019-04-14T07:31:47.713Z,2.7
2019-04-14T07:32:47.821Z,2.6
2019-04-14T07:33:47.718Z,2.62
2019-04-14T07:34:47.702Z,2.81
2019-04-14T07:35:47.876Z,2.86
2019-04-14T07:36:47.679Z,2.66
2019-04-14T07:37:47.687Z,2.56
2019-04-14T07:38:47.703Z,2.37
2019-04-14T07:39:47.740Z,2.39
2019-04-14T07:40:47.898Z,2.49
2019-04-14T07:41:47.693Z,2.34
2019-04-14T07:42:47.751Z,2.27
2019-04-14T07:43:47.715Z,2.19
2019-04-14T07:44:47.687Z,2.05
2019-04-14T07:45:47.733Z,2.35
2019-04-14T07:46:47.681Z,2.19
2019-04-14T07:47:47.894Z,2.17
2019-04-14T07:48:47.841Z,2.47
2019-04-14T07:49:47.762Z,2.41
2019-04-14T07:50:47.642Z,2.38
2019-04-14T07:51:47.768Z,2.41
2019-04-14T07:52:47.719Z,2.47
2019-04-14T07:53:47.922Z,2.54
2019-04-14T07:54:47.678Z,2.3
2019-04-14T07:55:47.677Z,2.1
2019-04-14T07:56:47.684Z,2.29
2019-04-14T07:57:47.783Z,2.27
2019-04-14T07:58:47.660Z,2.42
2019-04-14T07:59:47.662Z,2.46
2019-04-14T08:00:47.625Z,2.53
2019-04-14T08:01:47.702Z,2.43
2019-04-14T08:02:47.656Z,2.51
2019-04-14T08:03:47.671Z,2.43
2019-04-14T08:04:47.713Z,2.61
2019-04-14T08:05:47.756Z,2.66
2019-04-14T08:06:47.699Z,2.64
2019-04-14T08:07:47.641Z,2.66
2019-04-14T08:08:47.624Z,2.67
2019-04-14T08:09:47.897Z,2.65
2019-04-14T08:10:47.633Z,2.64
2019-04-14T08:11:47.632Z,2.57
2019-04-14T08:12:47.658Z,2.57
2019-04-14T08:13:47.676Z,2.58
2019-04-14T08:14:47.590Z,2.64
2019-04-14T08:15:47.662Z,2.6
2019-04-14T08:16:47.674Z,2.53
2019-04-14T08:17:47.600Z,2.62
2019-04-14T08:18:47.686Z,2.52
2019-04-14T08:19:47.721Z,2.51
2019-04-14T08:20:47.591Z,2.42
2019-04-14T08:21:47.713Z,2.4
2019-04-14T08:22:47.927Z,2.42
2019-04-14T08:23:47.635Z,2.41
2019-04-14T08:24:47.595Z,2.59
2019-04-14T08:25:47.645Z,2.52
2019-04-14T08:26:47.734Z,2.55
2019-04-14T08:27:47.645Z,2.54
2019-04-14T08:28:47.593Z,2.49
2019-04-14T08:29:47.658Z,2.62
2019-04-14T08:30:47.637Z,2.78
2019-04-14T08:31:47.838Z,2.77
2019-04-14T08:32:47.665Z,2.65
2019-04-14T08:33:47.692Z,2.83
2019-04-14T08:34:47.658Z,2.79
2019-04-14T08:35:47.596Z,2.86
2019-04-14T08:36:47.699Z,2.91
2019-04-14T08:37:47.594Z,2.75
2019-04-14T08:38:50.464Z,2.65
2019-04-14T08:39:48.911Z,2.65
2019-04-14T08:40:47.701Z,2.83
2019-04-14T08:41:48.819Z,2.82
2019-04-14T08:42:47.612Z,2.74
2019-04-14T08:43:50.151Z,2.92
2019-04-14T08:44:48.851Z,2.86
2019-04-14T08:45:48.475Z,2.86
2019-04-14T08:46:49.085Z,2.89
2019-04-14T08:47:47.642Z,2.91
2019-04-14T08:48:47.585Z,2.86
2019-04-14T08:49:47.605Z,3.01
2019-04-14T08:50:47.668Z,2.7
2019-04-14T08:51:47.673Z,2.66
2019-04-14T08:52:48.186Z,2.52
2019-04-14T08:53:48.521Z,2.84
2019-04-14T08:54:47.562Z,3.06
2019-04-14T08:55:47.565Z,3.02
2019-04-14T08:56:47.553Z,2.88
2019-04-14T08:57:47.591Z,3.14
2019-04-14T08:58:47.565Z,3.35
2019-04-14T08:59:47.556Z,3.4
2019-04-14T09:00:47.648Z,3
2019-04-14T09:01:47.647Z,2.87
2019-04-14T09:02:47.724Z,2.65
2019-04-14T09:03:47.591Z,2.75
2019-04-14T09:04:47.629Z,2.53
2019-04-14T09:05:47.629Z,2.67
2019-04-14T09:06:47.614Z,2.7
2019-04-14T09:07:47.551Z,2.77
2019-04-14T09:08:47.843Z,2.97
2019-04-14T09:09:47.620Z,3.09
2019-04-14T09:10:47.520Z,3.17
2019-04-14T09:11:47.577Z,3.16
2019-04-14T09:13:48.567Z,2.53
2019-04-14T09:14:57.884Z,2.76
2019-04-14T09:15:48.634Z,3.05
2019-04-14T09:16:47.541Z,3.05
2019-04-14T09:17:47.601Z,3.13
2019-04-14T09:18:47.728Z,3.12
2019-04-14T09:19:48.511Z,3.07
2019-04-14T09:20:52.991Z,2.83
2019-04-14T09:21:47.525Z,2.71
2019-04-14T09:22:47.837Z,2.62
2019-04-14T09:23:47.663Z,2.85
2019-04-14T09:24:47.646Z,2.68
2019-04-14T09:25:48.450Z,2.64
2019-04-14T09:26:47.597Z,2.62
2019-04-14T09:27:47.667Z,2.86
2019-04-14T09:28:47.645Z,2.65
2019-04-14T09:29:47.621Z,2.93
2019-04-14T09:30:47.551Z,2.79
2019-04-14T09:31:47.524Z,2.55
2019-04-14T09:32:47.678Z,2.53
2019-04-14T09:33:48.433Z,2.65
2019-04-14T09:34:47.496Z,2.7
2019-04-14T09:35:47.596Z,2.48
2019-04-14T09:36:47.569Z,2.29
2019-04-14T09:37:47.507Z,2.34
2019-04-14T09:38:47.516Z,2.48
2019-04-14T09:39:47.543Z,2.24
2019-04-14T09:40:50.536Z,2.46
2019-04-14T09:41:47.599Z,2.43
2019-04-14T09:42:49.362Z,2.11
2019-04-14T09:43:47.593Z,2.12
2019-04-14T09:44:47.572Z,2.22
2019-04-14T09:45:50.738Z,2.22
2019-04-14T09:46:48.782Z,2.15
2019-04-14T09:47:47.498Z,2.18
2019-04-14T09:48:47.670Z,2.42
2019-04-14T09:49:47.513Z,2.55
2019-04-14T09:50:47.528Z,2.7
2019-04-14T09:51:50.409Z,2.62
2019-04-14T09:52:47.533Z,2.39
2019-04-14T09:53:47.595Z,2.5
2019-04-14T09:54:47.531Z,2.28
2019-04-14T09:55:47.724Z,2.23
2019-04-14T09:56:47.480Z,2.45
2019-04-14T09:57:47.706Z,2.37
2019-04-14T09:58:47.538Z,2.25
2019-04-14T09:59:47.507Z,2.21
2019-04-14T10:00:47.460Z,2.28
2019-04-14T10:01:47.436Z,2.3
2019-04-14T10:02:47.683Z,2.42
2019-04-14T10:03:47.749Z,2.48
2019-04-14T10:04:47.545Z,2.25
2019-04-14T10:05:48.069Z,2.37
2019-04-14T10:06:48.238Z,2.49
2019-04-14T10:07:49.126Z,2.41
2019-04-14T10:08:47.915Z,2.34
2019-04-14T10:09:47.747Z,2.6
2019-04-14T10:10:47.723Z,2.79
2019-04-14T10:11:56.725Z,2.64
2019-04-14T10:12:47.787Z,2.47
2019-04-14T10:13:47.787Z,2.69
2019-04-14T10:14:47.718Z,2.95
2019-04-14T10:15:47.630Z,2.98
2019-04-14T10:16:47.700Z,3.17
2019-04-14T10:17:47.675Z,2.98
2019-04-14T10:18:47.745Z,2.52
2019-04-14T10:19:50.434Z,2.51
2019-04-14T10:20:47.729Z,2.43
2019-04-14T10:21:47.442Z,2.66
2019-04-14T10:22:47.484Z,2.3
2019-04-14T10:23:47.713Z,2.26
2019-04-14T10:24:47.677Z,2.34
2019-04-14T10:25:47.600Z,1.94
2019-04-14T10:26:47.665Z,2.17
2019-04-14T10:27:47.475Z,2.33
2019-04-14T10:28:47.465Z,2.33
2019-04-14T10:29:47.606Z,2.35
2019-04-14T10:30:47.522Z,2.05
2019-04-14T10:31:47.470Z,1.97
2019-04-14T10:32:47.520Z,2.19
2019-04-14T10:33:47.422Z,2.32
2019-04-14T10:34:47.500Z,2.51
2019-04-14T10:35:47.508Z,2.34
2019-04-14T10:36:47.445Z,2.22
2019-04-14T10:37:47.572Z,2.17
2019-04-14T10:38:47.453Z,2.43
2019-04-14T10:39:47.463Z,2.31
2019-04-14T10:40:47.453Z,2.52
2019-04-14T10:41:47.459Z,2.2
2019-04-14T10:42:47.477Z,2.03
2019-04-14T10:43:47.401Z,2.23
2019-04-14T10:44:47.471Z,1.62
2019-04-14T10:45:47.399Z,1.83
2019-04-14T10:46:47.476Z,2.06
2019-04-14T10:47:47.477Z,1.82
2019-04-14T10:48:47.420Z,1.97
2019-04-14T10:49:48.888Z,2.28
2019-04-14T10:50:47.536Z,2.43
2019-04-14T10:51:47.665Z,2.38
2019-04-14T10:52:47.392Z,2.16
2019-04-14T10:53:47.494Z,2.18
2019-04-14T10:54:47.400Z,2.41
2019-04-14T10:55:47.509Z,1.94
2019-04-14T10:56:47.456Z,2.03
2019-04-14T10:57:47.380Z,2.09
2019-04-14T10:58:47.550Z,1.58
2019-04-14T10:59:47.551Z,1.66
2019-04-14T11:00:47.463Z,1.52
2019-04-14T11:01:47.397Z,1.99
2019-04-14T11:02:47.439Z,2.35
2019-04-14T11:03:47.459Z,2.28
2019-04-14T11:04:47.416Z,2.19
2019-04-14T11:05:48.276Z,2.57
2019-04-14T11:06:47.396Z,2.45
2019-04-14T11:07:47.394Z,2.25
2019-04-14T11:08:47.426Z,2.12
2019-04-14T11:09:47.393Z,2.24
2019-04-14T11:10:47.392Z,2.65
2019-04-14T11:11:47.431Z,2.79
2019-04-14T11:12:47.531Z,2.37
2019-04-14T11:13:47.383Z,1.99
2019-04-14T11:14:47.419Z,1.68
2019-04-14T11:15:47.512Z,1.88
2019-04-14T11:16:47.467Z,2.11
2019-04-14T11:17:53.221Z,2.2
2019-04-14T11:18:47.370Z,2.12
2019-04-14T11:19:47.389Z,2.25
2019-04-14T11:20:47.461Z,2.07
2019-04-14T11:21:47.437Z,2.17
2019-04-14T11:22:47.460Z,2.32
2019-04-14T11:23:47.419Z,1.83
2019-04-14T11:24:47.408Z,1.75
2019-04-14T11:25:47.362Z,1.71
2019-04-14T11:26:47.397Z,2.02
2019-04-14T11:27:47.376Z,1.81
2019-04-14T11:28:47.410Z,2.03
2019-04-14T11:29:47.444Z,2.28
2019-04-14T11:30:47.494Z,2.26
2019-04-14T11:31:47.379Z,2.22
2019-04-14T11:32:47.410Z,2.46
2019-04-14T11:33:47.635Z,2.52
2019-04-14T11:34:47.785Z,2.18
2019-04-14T11:35:47.450Z,2.3
2019-04-14T11:36:47.426Z,2.57
2019-04-14T11:37:47.359Z,2.69
2019-04-14T11:38:47.456Z,2.73
2019-04-14T11:39:47.387Z,2.34
2019-04-14T11:40:47.391Z,2.19
2019-04-14T11:41:47.360Z,2.3
2019-04-14T11:42:53.082Z,2.51
2019-04-14T11:43:47.416Z,2.43
2019-04-14T11:44:48.624Z,2.46
2019-04-14T11:45:47.375Z,2.24
2019-04-14T11:46:47.330Z,2.37
2019-04-14T11:47:47.357Z,2.77
2019-04-14T11:48:47.327Z,2.67
2019-04-14T11:49:47.475Z,2.87
2019-04-14T11:50:47.403Z,2.68
2019-04-14T11:51:56.058Z,2.65
2019-04-14T11:52:47.386Z,2.48
2019-04-14T11:53:47.334Z,2.66
2019-04-14T11:54:47.413Z,2.54
2019-04-14T11:55:47.519Z,2.45
2019-04-14T11:56:47.388Z,2.48
2019-04-14T11:57:47.438Z,2.45
2019-04-14T11:58:47.358Z,2.41
2019-04-14T11:59:47.457Z,2.14
2019-04-14T12:00:47.497Z,2.32
2019-04-14T12:01:47.425Z,2.54
2019-04-14T12:02:47.404Z,2.52
2019-04-14T12:03:47.367Z,2.39
2019-04-14T12:04:47.321Z,2.2
2019-04-14T12:05:47.353Z,2.37
2019-04-14T12:06:47.339Z,2.22
2019-04-14T12:07:47.344Z,2.13
2019-04-14T12:08:47.408Z,1.76
2019-04-14T12:09:47.319Z,1.96
2019-04-14T12:10:47.295Z,1.67
2019-04-14T12:11:47.296Z,1.79
2019-04-14T12:12:48.218Z,1.5
2019-04-14T12:13:47.329Z,1.77
2019-04-14T12:14:47.311Z,1.99
2019-04-14T12:15:47.362Z,2.13
2019-04-14T12:16:47.327Z,2.24
2019-04-14T12:17:47.389Z,2
2019-04-14T12:18:47.309Z,2.02
2019-04-14T12:19:47.298Z,1.7
2019-04-14T12:20:47.353Z,1.5
2019-04-14T12:21:47.292Z,1.63
2019-04-14T12:22:47.438Z,1.88
2019-04-14T12:23:47.304Z,1.61
2019-04-14T12:24:47.347Z,1.49
2019-04-14T12:25:47.327Z,1.61
2019-04-14T12:26:48.646Z,1.44
2019-04-14T12:27:47.350Z,1.03
2019-04-14T12:28:47.357Z,0.95
2019-04-14T12:29:48.131Z,1.19
2019-04-14T12:30:47.323Z,1.27
2019-04-14T12:31:48.605Z,1.18
2019-04-14T12:32:47.316Z,1.05
2019-04-14T12:33:47.309Z,1.08
2019-04-14T12:34:47.312Z,1.45
2019-04-14T12:35:47.398Z,1.09
2019-04-14T12:36:47.291Z,1.08
2019-04-14T12:37:47.296Z,1.24
2019-04-14T12:38:47.498Z,1.03
2019-04-14T12:39:47.468Z,1.24
2019-04-14T12:40:47.495Z,0.8
2019-04-14T12:41:47.335Z,0.82
2019-04-14T12:42:47.437Z,0.96
2019-04-14T12:43:47.444Z,1.1
2019-04-14T12:44:47.300Z,1.08
2019-04-14T12:45:47.278Z,0.9
2019-04-14T12:46:47.443Z,0.94
2019-04-14T12:47:47.284Z,1.15
2019-04-14T12:48:47.349Z,1.47
2019-04-14T12:49:47.297Z,1.63
2019-04-14T12:50:47.235Z,1.67
2019-04-14T12:51:47.346Z,1.83
2019-04-14T12:52:47.353Z,1.42
2019-04-14T12:53:47.235Z,1.4
2019-04-14T12:54:47.358Z,1.08
2019-04-14T12:55:47.297Z,0.91
2019-04-14T12:56:47.283Z,0.82
2019-04-14T12:57:47.243Z,1.04
2019-04-14T12:58:47.255Z,0.89
2019-04-14T12:59:47.307Z,1.13
2019-04-14T13:00:47.429Z,1.12
2019-04-14T13:01:48.894Z,0.88
2019-04-14T13:02:47.364Z,0.94
2019-04-14T13:03:47.233Z,0.69
2019-04-14T13:04:47.284Z,0.77
2019-04-14T13:05:47.243Z,1
2019-04-14T13:06:47.245Z,0.96
2019-04-14T13:07:47.241Z,0.9
2019-04-14T13:08:47.234Z,0.95
2019-04-14T13:09:47.301Z,0.9
2019-04-14T13:10:47.319Z,0.93
2019-04-14T13:11:47.254Z,1
2019-04-14T13:12:47.203Z,1.04
2019-04-14T13:13:47.233Z,0.76
2019-04-14T13:14:47.221Z,0.51
2019-04-14T13:15:47.352Z,0.91
2019-04-14T13:16:47.255Z,1
2019-04-14T13:17:47.228Z,0.9
2019-04-14T13:18:47.313Z,0.54
2019-04-14T13:19:47.231Z,0.88
2019-04-14T13:20:47.289Z,1.09
2019-04-14T13:21:47.277Z,0.67
2019-04-14T13:22:47.504Z,1.1
2019-04-14T13:23:47.203Z,0.85
2019-04-14T13:24:47.226Z,0.82
2019-04-14T13:25:47.267Z,1.25
2019-04-14T13:26:47.286Z,0.83
2019-04-14T13:27:47.294Z,1.08
2019-04-14T13:28:47.219Z,1.4
2019-04-14T13:29:47.202Z,0.97
2019-04-14T13:30:47.225Z,0.67
2019-04-14T13:31:47.213Z,1.03
2019-04-14T13:32:47.282Z,1.17
2019-04-14T13:33:47.219Z,0.97
2019-04-14T13:34:47.275Z,0.74
2019-04-14T13:35:47.278Z,0.73
2019-04-14T13:36:47.246Z,0.95
2019-04-14T13:37:47.298Z,0.9
2019-04-14T13:38:47.325Z,0.71
2019-04-14T13:39:47.218Z,0.67
2019-04-14T13:40:47.291Z,0.76
2019-04-14T13:41:47.197Z,0.34
2019-04-14T13:42:47.233Z,0.25
2019-04-14T13:43:47.287Z,0.3
2019-04-14T13:44:47.532Z,0.39
2019-04-14T13:45:47.194Z,0.65
2019-04-14T13:46:47.231Z,0.62
2019-04-14T13:47:48.453Z,0.67
2019-04-14T13:48:47.193Z,0.84
2019-04-14T13:49:47.305Z,0.65
2019-04-14T13:50:47.259Z,0.72
2019-04-14T13:51:47.265Z,0.57
2019-04-14T13:52:47.737Z,0.47
2019-04-14T13:53:47.209Z,0.55
2019-04-14T13:54:47.235Z,0.71
2019-04-14T13:55:47.166Z,0.34
2019-04-14T13:56:47.211Z,0.48
2019-04-14T13:57:47.228Z,0.53
2019-04-14T13:58:47.260Z,0.75
2019-04-14T13:59:47.270Z,0.39
2019-04-14T14:00:47.209Z,0.65
2019-04-14T14:01:47.239Z,0.74
2019-04-14T14:02:47.236Z,0.67
2019-04-14T14:03:47.244Z,0.91
2019-04-14T14:04:47.163Z,0.9
2019-04-14T14:05:47.275Z,0.79
2019-04-14T14:06:47.192Z,0.81
2019-04-14T14:07:47.243Z,1.01
2019-04-14T14:08:47.204Z,1.11
2019-04-14T14:09:47.213Z,1.04
2019-04-14T14:10:47.179Z,0.67
2019-04-14T14:11:47.203Z,0.71
2019-04-14T14:12:47.178Z,0.63
2019-04-14T14:13:47.207Z,0.38
2019-04-14T14:14:47.191Z,0.37
2019-04-14T14:15:47.223Z,0.23
2019-04-14T14:16:49.861Z,0.05
2019-04-14T14:17:47.182Z,-0.01
2019-04-14T14:18:47.178Z,0.05
2019-04-14T14:19:47.141Z,0.05
2019-04-14T14:20:47.202Z,0.06
2019-04-14T14:21:47.234Z,-0.03
2019-04-14T14:23:00.017Z,0.12
2019-04-14T14:23:47.192Z,0.05
2019-04-14T14:24:47.144Z,-0.04
2019-04-14T14:25:47.152Z,-0.16
2019-04-14T14:26:47.334Z,-0.63
2019-04-14T14:27:47.365Z,-0.48
2019-04-14T14:28:47.242Z,-0.56
2019-04-14T14:29:47.182Z,-0.34
2019-04-14T14:30:47.175Z,-0.16
2019-04-14T14:31:47.213Z,-0.32
2019-04-14T14:32:47.154Z,-0.58
2019-04-14T14:33:47.180Z,-0.45
2019-04-14T14:34:47.132Z,-0.43
2019-04-14T14:35:47.175Z,-0.42
2019-04-14T14:36:47.156Z,-0.13
2019-04-14T14:37:47.191Z,-0.48
2019-04-14T14:38:47.169Z,-0.49
2019-04-14T14:39:47.262Z,-0.18
2019-04-14T14:40:49.590Z,-0.25
2019-04-14T14:41:47.166Z,-0.42
2019-04-14T14:42:47.270Z,-0.15
2019-04-14T14:43:47.203Z,-0.02
2019-04-14T14:44:47.164Z,-0.14
2019-04-14T14:45:47.116Z,0.02
2019-04-14T14:46:47.140Z,-0.21